Map

Track Data

SID SEASON NUMBER BASIN SUBBASIN NAME ISO_TIME NATURE LAT LON WMO_WIND WMO_PRES WMO_AGENCY TRACK_TYPE DIST2LAND LANDFALL IFLAG USA_AGENCY USA_ATCF_ID USA_LAT USA_LON USA_RECORD USA_STATUS USA_WIND USA_PRES USA_SSHS USA_R34_NE USA_R34_SE USA_R34_SW USA_R34_NW USA_R50_NE USA_R50_SE USA_R50_SW USA_R50_NW USA_R64_NE USA_R64_SE USA_R64_SW USA_R64_NW USA_POCI USA_ROCI USA_RMW USA_EYE TOKYO_LAT TOKYO_LON TOKYO_GRADE TOKYO_WIND TOKYO_PRES TOKYO_R50_DIR TOKYO_R50_LONG TOKYO_R50_SHORT TOKYO_R30_DIR TOKYO_R30_LONG TOKYO_R30_SHORT TOKYO_LAND CMA_LAT CMA_LON CMA_CAT CMA_WIND CMA_PRES HKO_LAT HKO_LON HKO_CAT HKO_WIND HKO_PRES NEWDELHI_LAT NEWDELHI_LON NEWDELHI_GRADE NEWDELHI_WIND NEWDELHI_PRES NEWDELHI_CI NEWDELHI_DP NEWDELHI_POCI REUNION_LAT REUNION_LON REUNION_TYPE REUNION_WIND REUNION_PRES REUNION_TNUM REUNION_CI REUNION_RMW REUNION_R34_NE REUNION_R34_SE REUNION_R34_SW REUNION_R34_NW REUNION_R50_NE REUNION_R50_SE REUNION_R50_SW REUNION_R50_NW REUNION_R64_NE REUNION_R64_SE REUNION_R64_SW REUNION_R64_NW BOM_LAT BOM_LON BOM_TYPE BOM_WIND BOM_PRES BOM_TNUM BOM_CI BOM_RMW BOM_R34_NE BOM_R34_SE BOM_R34_SW BOM_R34_NW BOM_R50_NE BOM_R50_SE BOM_R50_SW BOM_R50_NW BOM_R64_NE BOM_R64_SE BOM_R64_SW BOM_R64_NW BOM_ROCI BOM_POCI BOM_EYE BOM_POS_METHOD BOM_PRES_METHOD NADI_LAT NADI_LON NADI_CAT NADI_WIND NADI_PRES WELLINGTON_LAT WELLINGTON_LON WELLINGTON_WIND WELLINGTON_PRES DS824_LAT DS824_LON DS824_STAGE DS824_WIND DS824_PRES TD9636_LAT TD9636_LON TD9636_STAGE TD9636_WIND TD9636_PRES TD9635_LAT TD9635_LON TD9635_WIND TD9635_PRES TD9635_ROCI NEUMANN_LAT NEUMANN_LON NEUMANN_CLASS NEUMANN_WIND NEUMANN_PRES MLC_LAT MLC_LON MLC_CLASS MLC_WIND MLC_PRES USA_GUST BOM_GUST BOM_GUST_PER REUNION_GUST REUNION_GUST_PER USA_SEAHGT USA_SEARAD_NE USA_SEARAD_SE USA_SEARAD_SW USA_SEARAD_NW STORM_SPEED STORM_DIR
2021212N11261 2021 45 EP MM IGNACIO 2021-07-30 12:00:00 NR 11.3000 -99.4000 PROVISIONAL 553 553 O_____________ nhc_working_bt EP102021 11.3000 -99.4000 DB 20 1010 -3 13 275
2021212N11261 2021 45 EP MM IGNACIO 2021-07-30 15:00:00 NR 11.3575 -100.060 PROVISIONAL 571 571 P_____________ EP102021 11.3575 -100.060 DB 20 1010 -3 14 274
2021212N11261 2021 45 EP MM IGNACIO 2021-07-30 18:00:00 NR 11.4000 -100.800 PROVISIONAL 597 597 O_____________ nhc_working_bt EP102021 11.4000 -100.800 DB 20 1010 -3 16 273
2021212N11261 2021 45 EP MM IGNACIO 2021-07-30 21:00:00 NR 11.4277 -101.658 PROVISIONAL 631 631 P_____________ EP102021 11.4277 -101.658 DB 20 1010 -3 17 273
2021212N11261 2021 45 EP MM IGNACIO 2021-07-31 00:00:00 NR 11.5000 -102.500 PROVISIONAL 655 655 O_____________ nhc_working_bt EP102021 11.5000 -102.500 DB 20 1010 -3 15 278
2021212N11261 2021 45 EP MM IGNACIO 2021-07-31 03:00:00 NR 11.6396 -103.173 PROVISIONAL 676 666 P_____________ EP102021 11.6396 -103.173 DB 20 1010 -3 13 287
2021212N11261 2021 45 EP MM IGNACIO 2021-07-31 06:00:00 DS 11.9000 -103.800 PROVISIONAL 670 665 O_____________ nhc_working_bt EP102021 11.9000 -103.800 LO 20 1010 -3 1012 150 70 15 297
2021212N11261 2021 45 EP MM IGNACIO 2021-07-31 09:00:00 DS 12.2899 -104.500 PROVISIONAL 668 641 P_____________ EP102021 12.2899 -104.500 LO 20 1010 -3 1012 150 70 16 303
2021212N11261 2021 45 EP MM IGNACIO 2021-07-31 12:00:00 DS 12.8000 -105.200 PROVISIONAL 641 601 O_____________ nhc_working_bt EP102021 12.8000 -105.200 LO 20 1010 -3 1012 150 70 17 310
2021212N11261 2021 45 EP MM IGNACIO 2021-07-31 15:00:00 DS 13.3848 -105.858 PROVISIONAL 605 578 P_____________ EP102021 13.3848 -105.858 LO 22 1009 -3 1011 150 80 18 313
2021212N11261 2021 45 EP MM IGNACIO 2021-07-31 18:00:00 DS 14.0000 -106.500 PROVISIONAL 578 567 O_____________ nhc_working_bt EP102021 14.0000 -106.500 LO 25 1008 -3 1011 150 90 17 313
2021212N11261 2021 45 EP MM IGNACIO 2021-07-31 21:00:00 DS 14.5724 -107.165 PROVISIONAL 572 556 P_____________ EP102021 14.5724 -107.165 LO 25 1008 -3 1011 150 90 17 311
2021212N11261 2021 45 EP MM IGNACIO 2021-08-01 00:00:00 DS 15.1000 -107.800 PROVISIONAL 558 547 O_____________ nhc_working_bt EP102021 15.1000 -107.800 LO 25 1008 -3 1011 150 90 35 15 311
2021212N11261 2021 45 EP MM IGNACIO 2021-08-01 03:00:00 DS 15.5872 -108.365 PROVISIONAL 555 553 P_____________ EP102021 15.5872 -108.365 LO 25 1008 -3 1010 150 80 14 310
2021212N11261 2021 45 EP MM IGNACIO 2021-08-01 06:00:00 DS 16.0000 -108.900 PROVISIONAL 561 561 O_____________ nhc_working_bt EP102021 16.0000 -108.900 LO 25 1008 -3 1010 150 70 40 13 306
2021212N11261 2021 45 EP MM IGNACIO 2021-08-01 09:00:00 DS 16.3297 -109.428 PROVISIONAL 576 576 P_____________ EP102021 16.3297 -109.428 LO 25 1008 -3 1010 150 65 12 300
2021212N11261 2021 45 EP MM IGNACIO 2021-08-01 12:00:00 DS 16.6000 -110.000 PROVISIONAL 605 605 O_____________ nhc_working_bt EP102021 16.6000 -110.000 LO 25 1008 -3 1011 150 60 35 14 294
2021212N11261 2021 45 EP MM IGNACIO 2021-08-01 15:00:00 DS 16.8729 -110.722 PROVISIONAL 648 648 P_____________ EP102021 16.8729 -110.722 LO 27 1007 -3 1011 150 55 14 290
2021212N11261 2021 45 EP MM IGNACIO 2021-08-01 18:00:00 TS 17.1000 -111.400 PROVISIONAL 664 659 O_____________ nhc_working_bt EP102021 17.1000 -111.400 TD 30 1007 -1 1011 150 50 40 12 289
2021212N11261 2021 45 EP MM IGNACIO 2021-08-01 21:00:00 TS 17.2507 -111.877 PROVISIONAL 656 656 P_____________ EP102021 17.2571 -111.845 TD 30 1006 -1 1010 135 50 9 289
2021212N11261 2021 45 EP MM IGNACIO 2021-08-02 00:00:00 TS 17.4000 -112.300 PROVISIONAL 660 651 O_____________ nhc_working_bt EP102021 17.4000 -112.200 TD 30 1006 -1 1010 120 50 40 9 295
2021212N11261 2021 45 EP MM IGNACIO 2021-08-02 03:00:00 TS 17.6049 -112.686 PROVISIONAL 656 645 P_____________ EP102021 17.5924 -112.600 TD 30 1006 -1 1011 120 50 8 301
2021212N11261 2021 45 EP MM IGNACIO 2021-08-02 06:00:00 TS 17.8216 -113.039 PROVISIONAL 650 645 O_____________ nhc_working_bt EP102021 17.8000 -113.000 TD 30 1006 -1 1012 120 50 40 12 30 8 301
2021212N11261 2021 45 EP MM IGNACIO 2021-08-02 09:00:00 TS 18.0035 -113.378 PROVISIONAL 652 648 P_____________ EP102021 17.9999 -113.400 TD 32 1005 -1 1011 120 45 7 298
2021212N11261 2021 45 EP MM IGNACIO 2021-08-02 12:00:00 TS 18.1729 -113.721 PROVISIONAL 651 651 O_____________ nhc_working_bt EP102021 18.2000 -113.800 TS 35 1004 0 40 1011 120 40 45 7 295
2021212N11261 2021 45 EP MM IGNACIO 2021-08-02 15:00:00 TS 18.3199 -114.085 PROVISIONAL 668 666 P_____________ EP102021 18.3774 -114.200 TS 35 1004 0 40 1011 120 40 8 297
2021212N11261 2021 45 EP MM IGNACIO 2021-08-02 18:00:00 TS 18.5500 -114.500 PROVISIONAL 670 670 O_____________ nhc_working_bt EP102021 18.6000 -114.600 TS 35 1004 0 40 1011 120 40 45 10 306
2021212N11261 2021 45 EP MM IGNACIO 2021-08-02 21:00:00 TS 18.9100 -114.957 PROVISIONAL 685 677 P_____________ EP102021 18.9425 -115.015 TS 35 1004 0 40 1011 120 40 11 311
2021212N11261 2021 45 EP MM IGNACIO 2021-08-03 00:00:00 TS 19.3000 -115.400 PROVISIONAL 689 679 O_____________ nhc_working_bt EP102021 19.3000 -115.400 TS 35 1005 0 40 1011 120 40 45 11 312
2021212N11261 2021 45 EP MM IGNACIO 2021-08-03 03:00:00 TS 19.6300 -115.791 PROVISIONAL 685 672 P_____________ EP102021 19.5725 -115.738 TS 32 1006 -1 1011 120 50 9 312
2021212N11261 2021 45 EP MM IGNACIO 2021-08-03 06:00:00 TS 19.9000 -116.100 PROVISIONAL 676 671 O_____________ nhc_working_bt EP102021 19.8000 -116.000 TD 30 1007 -1 1012 120 60 40 12 40 7 311
2021212N11261 2021 45 EP MM IGNACIO 2021-08-03 09:00:00 TS 20.1086 -116.376 PROVISIONAL 677 669 P_____________ EP102021 20.0224 -116.232 TD 27 1007 -1 1012 120 60 5 317
2021212N11261 2021 45 EP MM IGNACIO 2021-08-03 12:00:00 TS 20.2500 -116.450 PROVISIONAL 667 638 O_____________ nhc_working_bt EP102021 20.2000 -116.300 TD 25 1008 -1 1012 120 60 40 3 33
2021212N11261 2021 45 EP MM IGNACIO 2021-08-03 15:00:00 TS 20.3664 -116.197 PROVISIONAL 638 612 P_____________ EP102021 20.3450 -116.118 TD 25 1008 -1 1012 120 60 6 76
2021212N11261 2021 45 EP MM IGNACIO 2021-08-03 18:00:00 TS 20.4000 -115.800 PROVISIONAL 612 593 O_____________ nhc_working_bt EP102021 20.4000 -115.800 TD 25 1009 -1 1012 120 60 35 7 93
2021212N11261 2021 45 EP MM IGNACIO 2021-08-03 21:00:00 TS 20.3299 -115.470 PROVISIONAL 603 591 P_____________ EP102021 20.3350 -115.490 TD 25 1009 -1 1012 120 60 6 110
2021212N11261 2021 45 EP MM IGNACIO 2021-08-04 00:00:00 DS 20.2000 -115.200 PROVISIONAL 594 O_____________ nhc_working_bt EP102021 20.2000 -115.200 LO 25 1009 -3 1012 120 60 35 6 117

About IBTrACS Database

This database is a web-friendly format of International Best Track Archive for Climate Stewardship (IBTrACS), a global best track data archive curated by NOAA dating back to 1842.

Updated: 2021-12-01